KCZ weather

Kōchi Ryōma Airport
Nankoku, Kōchi Prefecture, Japan

Public forecast

Using degrees Celsius for public forecast. Weather courtesy of forecast.io.

METAR (pilot weather report)

Report is more than 6 hours old.

Retrieved 2019/05/24 11:00 UTC (8 hours ago):

RJOK 241100Z 04003KT CAVOK 22/12 Q1013

TAF (pilot weather forecast)

Retrieved 2019/05/24 18:30 UTC (27 minutes ago):

TAF RJOK 241705Z 2418/2600 35007KT 9999 FEW035 BECMG 2423/2501 17006KT BECMG 2509/2512 35005KT